Wainuiomata, New Zealand
Current Conditions -  °F | °C
As of 8:30 AM on Friday 28 Nov 2014 (Local Time) from NZWN Reporting Station
Clear Clear  
Wind Chill: 59°   Ceiling: Unl
Heat Index: 59°   Visibility: 6mi
Dew Point: 41°   Wind: 20mph
Humidity: 51%   Direction: 320°NW
Pressure: 29.62"   Gusts: NA
Location:  41.26°S, 174.95°E
Report Text: NZWN 272030Z AUTO 32017KT 290V360 9999 NCD 15/05 Q1003 NOSIG
Loading
Personal Weather Stations






























Interactive Weather Map New forecast layout! Learn more

10-Day Weather Forecast

Advertisements
Track Severe Weather on mobile